Terminal Aerodrome Forecast
Issued by NWS

Home | Current Version | Previous Version | Graphics & Text | Print | Product List | Glossary On
Versions: 1 2 3 4 5 6 7 8 9 10 11 12 13 14 15 16 17 18 19 20 21 22 23 24 25 26 27 28 29 30 31 32 33 34 35 36 37 38 39 40 41 42 43 44 45 46 47 48 49 50
000
FTUS43 KGRB 171020 AAB
TAFRHI
TAF AMD
KRHI 171020Z 1710/1806 11008G14KT 4SM BR VCSH BKN007 OVC020
      WS015/15040KT
      TEMPO 1710/1714 1SM BR OVC003
     FM171600 20007KT 4SM -SHRA BR OVC008
     FM172200 25007G15KT P6SM -SHRA BKN008=

USA.gov is the U.S. government's official web portal to all federal, state and local government web resources and services.